Terminal Aerodrome Forecast
Issued by NWS

Home | Current Version | Previous Version | Text Only | Print | Product List | Glossary On
Versions: 1 2 3 4 5 6 7 8 9 10 11 12 13 14 15 16 17 18 19 20
000
FTUS42 KTBW 030540
TAFRSW
TAF
KRSW 030540Z 0306/0406 VRB03KT P6SM FEW035 SCT250
     FM031600 29006KT P6SM SCT035 SCT250
     FM031900 29007KT P6SM VCTS SCT040CB SCT150
     FM040000 33004KT P6SM SCT050 BKN200=

USA.gov is the U.S. government's official web portal to all federal, state and local government web resources and services.